createdAt,value
2018-06-30T00:01:11.266Z,16.33
2018-06-30T00:03:46.857Z,16.60
2018-06-30T00:06:17.383Z,15.43
2018-06-30T00:08:47.840Z,16.43
2018-06-30T00:11:18.463Z,16.00
2018-06-30T00:13:48.787Z,16.43
2018-06-30T00:16:19.259Z,16.83
2018-06-30T00:18:49.870Z,16.73
2018-06-30T00:21:20.402Z,15.47
2018-06-30T00:23:51.150Z,16.27
2018-06-30T00:26:21.882Z,15.57
2018-06-30T00:28:52.411Z,16.20
2018-06-30T00:31:23.068Z,16.70
2018-06-30T00:33:53.495Z,16.17
2018-06-30T00:36:24.094Z,14.93
2018-06-30T00:38:54.485Z,14.93
2018-06-30T00:41:24.875Z,15.70
2018-06-30T00:43:55.559Z,15.70
2018-06-30T00:46:26.151Z,16.17
2018-06-30T00:48:56.592Z,15.87
2018-06-30T00:51:26.982Z,15.57
2018-06-30T00:53:57.287Z,16.07
2018-06-30T00:56:27.741Z,15.43
2018-06-30T00:58:58.272Z,15.53
2018-06-30T01:01:28.542Z,16.33
2018-06-30T01:03:58.930Z,17.50
2018-06-30T01:06:29.449Z,17.30
2018-06-30T01:08:59.874Z,16.07
2018-06-30T01:11:30.384Z,15.03
2018-06-30T01:14:00.804Z,15.00
2018-06-30T01:16:31.461Z,17.23
2018-06-30T01:19:02.051Z,15.73
2018-06-30T01:21:32.658Z,16.20
2018-06-30T01:24:03.104Z,15.60
2018-06-30T01:26:33.477Z,15.53
2018-06-30T01:29:03.907Z,16.40
2018-06-30T01:31:34.548Z,16.50
2018-06-30T01:34:04.791Z,15.17
2018-06-30T01:36:35.238Z,16.27
2018-06-30T01:39:08.137Z,15.77
2018-06-30T01:41:38.603Z,16.03
2018-06-30T01:44:09.104Z,16.30
2018-06-30T01:46:39.640Z,16.60
2018-06-30T01:49:09.972Z,15.00
2018-06-30T01:51:40.395Z,16.43
2018-06-30T01:54:10.796Z,16.10
2018-06-30T01:56:41.254Z,15.10
2018-06-30T01:59:11.676Z,16.33
2018-06-30T02:01:42.235Z,16.93
2018-06-30T02:04:12.720Z,15.23
2018-06-30T02:06:43.247Z,15.60
2018-06-30T02:09:13.683Z,15.93
2018-06-30T02:11:44.096Z,16.43
2018-06-30T02:14:14.498Z,16.97
2018-06-30T02:16:44.374Z,16.13
2018-06-30T02:19:14.902Z,16.30
2018-06-30T02:21:45.391Z,15.57
2018-06-30T02:24:15.899Z,15.63
2018-06-30T02:26:46.443Z,15.10
2018-06-30T02:29:16.779Z,16.27
2018-06-30T02:31:47.247Z,15.63
2018-06-30T02:34:17.758Z,17.43
2018-06-30T02:36:48.437Z,17.37
2018-06-30T02:39:18.988Z,16.53
2018-06-30T02:41:48.961Z,16.10
2018-06-30T02:44:19.425Z,15.43
2018-06-30T02:46:49.792Z,15.67
2018-06-30T02:49:20.079Z,15.27
2018-06-30T02:51:50.773Z,16.60
2018-06-30T02:54:21.290Z,16.63
2018-06-30T02:56:51.831Z,15.17
2018-06-30T02:59:22.383Z,15.93
2018-06-30T03:01:52.826Z,16.93
2018-06-30T03:04:23.301Z,15.87
2018-06-30T03:06:54.076Z,16.70
2018-06-30T03:09:24.549Z,16.13
2018-06-30T03:11:54.528Z,17.70
2018-06-30T03:14:25.088Z,16.70
2018-06-30T03:16:59.241Z,17.03
2018-06-30T03:19:29.891Z,16.63
2018-06-30T03:22:00.268Z,16.03
2018-06-30T03:24:30.756Z,15.47
2018-06-30T03:27:01.239Z,15.23
2018-06-30T03:29:31.716Z,15.30
2018-06-30T03:32:02.462Z,14.83
2018-06-30T03:34:32.958Z,15.37
2018-06-30T03:37:03.381Z,19.13
2018-06-30T03:39:33.917Z,17.00
2018-06-30T03:42:04.306Z,16.73
2018-06-30T03:44:34.617Z,15.10
2018-06-30T03:47:05.123Z,16.30
2018-06-30T03:49:35.888Z,17.47
2018-06-30T03:52:06.388Z,15.63
2018-06-30T03:54:37.107Z,15.20
2018-06-30T03:57:07.781Z,16.87
2018-06-30T03:59:38.240Z,17.27
2018-06-30T04:02:08.776Z,17.03
2018-06-30T04:04:39.562Z,17.40
2018-06-30T04:07:10.035Z,17.53
2018-06-30T04:09:41.636Z,16.70
2018-06-30T04:12:12.170Z,17.20
2018-06-30T04:14:45.931Z,16.50
2018-06-30T04:17:19.808Z,15.27
2018-06-30T04:19:50.348Z,16.43
2018-06-30T04:22:21.223Z,15.73
2018-06-30T04:24:51.853Z,16.17
2018-06-30T04:27:22.596Z,14.87
2018-06-30T04:29:53.216Z,14.23
2018-06-30T04:32:23.959Z,14.57
2018-06-30T04:34:54.459Z,14.97
2018-06-30T04:37:25.073Z,14.03
2018-06-30T04:39:55.507Z,12.97
2018-06-30T04:42:26.203Z,14.27
2018-06-30T04:44:56.497Z,14.43
2018-06-30T04:47:26.913Z,13.67
2018-06-30T04:49:57.287Z,13.67
2018-06-30T04:52:27.899Z,17.13
2018-06-30T04:54:58.355Z,20.33
2018-06-30T04:57:28.770Z,16.47
2018-06-30T04:59:59.239Z,14.37
2018-06-30T05:02:29.595Z,14.33
2018-06-30T05:04:59.975Z,14.43
2018-06-30T05:07:29.836Z,18.43
2018-06-30T05:10:00.099Z,14.57
2018-06-30T05:12:30.319Z,13.53
2018-06-30T05:15:00.427Z,14.30
2018-06-30T05:17:30.399Z,13.27
2018-06-30T05:20:00.171Z,13.50
2018-06-30T05:22:30.252Z,13.93
2018-06-30T05:25:00.207Z,13.77
2018-06-30T05:27:30.205Z,16.03
2018-06-30T05:30:00.228Z,13.20
2018-06-30T05:32:30.167Z,13.27
2018-06-30T05:35:00.176Z,13.87
2018-06-30T05:37:29.727Z,14.00
2018-06-30T05:39:59.638Z,14.13
2018-06-30T05:42:29.690Z,18.23
2018-06-30T05:44:59.775Z,13.00
2018-06-30T05:47:29.925Z,13.90
2018-06-30T05:50:00.106Z,13.23
2018-06-30T05:52:30.223Z,15.53
2018-06-30T05:55:00.328Z,13.50
2018-06-30T05:57:30.295Z,14.45
2018-06-30T06:00:00.235Z,12.55
2018-06-30T06:02:30.164Z,12.25
2018-06-30T06:05:00.071Z,12.80
2018-06-30T06:07:30.197Z,12.80
2018-06-30T06:10:00.177Z,11.38
2018-06-30T06:12:30.215Z,12.13
2018-06-30T06:15:00.187Z,12.98
2018-06-30T06:17:30.171Z,11.85
2018-06-30T06:20:00.342Z,10.53
2018-06-30T06:22:30.297Z,11.35
2018-06-30T06:25:00.210Z,10.63
2018-06-30T06:27:30.245Z,10.08
2018-06-30T06:30:10.330Z,10.05
2018-06-30T06:32:40.689Z,9.73
2018-06-30T06:35:10.538Z,10.63
2018-06-30T06:37:40.130Z,12.10
2018-06-30T06:40:10.090Z,9.65
2018-06-30T06:42:40.214Z,9.95
2018-06-30T06:45:10.477Z,9.98
2018-06-30T06:47:40.624Z,9.45
2018-06-30T06:50:10.731Z,12.78
2018-06-30T06:52:40.847Z,9.68
2018-06-30T06:55:10.855Z,9.78
2018-06-30T06:57:45.018Z,13.48
2018-06-30T07:00:14.832Z,9.33
2018-06-30T07:02:44.797Z,10.05
2018-06-30T07:05:18.577Z,10.23
2018-06-30T07:07:48.558Z,11.43
2018-06-30T07:10:18.608Z,10.10
2018-06-30T07:12:48.623Z,8.48
2018-06-30T07:15:18.482Z,9.00
2018-06-30T07:17:48.321Z,10.00
2018-06-30T07:20:18.602Z,10.68
2018-06-30T07:22:48.494Z,10.28
2018-06-30T07:25:18.069Z,9.68
2018-06-30T07:27:47.987Z,10.72
2018-06-30T07:30:18.142Z,10.15
2018-06-30T07:32:47.937Z,9.83
2018-06-30T07:35:29.350Z,9.95
2018-06-30T07:37:59.247Z,8.98
2018-06-30T07:40:29.283Z,9.75
2018-06-30T07:42:59.323Z,10.05
2018-06-30T07:45:29.463Z,9.93
2018-06-30T07:48:00.374Z,9.95
2018-06-30T07:50:30.338Z,11.40
2018-06-30T07:53:00.448Z,9.45
2018-06-30T07:55:30.752Z,8.98
2018-06-30T07:58:00.710Z,8.15
2018-06-30T08:00:30.874Z,8.50
2018-06-30T08:03:00.909Z,9.78
2018-06-30T08:05:30.811Z,8.45
2018-06-30T08:08:00.655Z,7.40
2018-06-30T08:10:36.446Z,8.63
2018-06-30T08:13:06.546Z,8.30
2018-06-30T08:15:36.473Z,8.33
2018-06-30T08:18:06.350Z,7.90
2018-06-30T08:20:36.608Z,8.68
2018-06-30T08:23:06.909Z,8.35
2018-06-30T08:25:37.309Z,8.65
2018-06-30T08:28:14.774Z,9.40
2018-06-30T08:30:44.830Z,8.15
2018-06-30T08:33:14.719Z,8.53
2018-06-30T08:35:44.666Z,8.88
2018-06-30T08:38:14.591Z,9.10
2018-06-30T08:40:44.484Z,7.78
2018-06-30T08:43:14.527Z,8.43
2018-06-30T08:45:44.675Z,9.78
2018-06-30T08:48:14.654Z,10.08
2018-06-30T08:50:44.638Z,9.60
2018-06-30T08:53:14.679Z,9.68
2018-06-30T08:55:44.865Z,10.15
2018-06-30T08:58:14.603Z,8.98
2018-06-30T09:00:44.660Z,8.88
2018-06-30T09:03:14.628Z,10.20
2018-06-30T09:05:51.308Z,9.65
2018-06-30T09:08:21.345Z,9.10
2018-06-30T09:10:51.347Z,7.92
2018-06-30T09:13:21.350Z,8.50
2018-06-30T09:15:51.249Z,8.18
2018-06-30T09:18:20.874Z,8.48
2018-06-30T09:20:50.816Z,7.45
2018-06-30T09:23:20.799Z,6.72
2018-06-30T09:25:50.923Z,6.50
2018-06-30T09:28:21.331Z,6.45
2018-06-30T09:30:51.263Z,5.00
2018-06-30T09:33:21.157Z,4.40
2018-06-30T09:35:51.228Z,4.90
2018-06-30T09:38:21.152Z,5.05
2018-06-30T09:40:51.038Z,4.20
2018-06-30T09:43:21.007Z,5.05
2018-06-30T09:45:50.957Z,4.60
2018-06-30T09:48:20.890Z,4.30
2018-06-30T09:50:50.900Z,4.90
2018-06-30T09:53:20.783Z,4.85
2018-06-30T09:55:50.715Z,5.20
2018-06-30T09:58:20.698Z,4.12
2018-06-30T10:00:55.752Z,4.58
2018-06-30T10:03:26.284Z,4.30
2018-06-30T10:05:56.203Z,4.47
2018-06-30T10:08:26.174Z,4.30
2018-06-30T10:10:56.091Z,4.85
2018-06-30T10:13:26.014Z,4.40
2018-06-30T10:15:55.882Z,4.87
2018-06-30T10:18:25.959Z,4.67
2018-06-30T10:20:55.976Z,4.92
2018-06-30T10:23:25.810Z,4.55
2018-06-30T10:25:55.823Z,5.05
2018-06-30T10:28:25.886Z,5.30
2018-06-30T10:30:55.894Z,5.72
2018-06-30T10:33:25.843Z,5.12
2018-06-30T10:35:55.802Z,5.37
2018-06-30T10:38:25.695Z,5.50
2018-06-30T10:40:55.606Z,5.50
2018-06-30T10:43:25.711Z,5.22
2018-06-30T10:45:55.686Z,5.10
2018-06-30T10:48:25.811Z,4.92
2018-06-30T10:50:55.911Z,4.72
2018-06-30T10:53:25.962Z,4.85
2018-06-30T10:55:55.863Z,5.03
2018-06-30T10:58:25.783Z,4.62
2018-06-30T11:00:55.826Z,4.55
2018-06-30T11:03:25.871Z,5.05
2018-06-30T11:05:56.000Z,4.80
2018-06-30T11:08:25.852Z,5.28
2018-06-30T11:10:56.081Z,4.85
2018-06-30T11:13:25.876Z,4.30
2018-06-30T11:15:55.991Z,4.20
2018-06-30T11:18:26.211Z,4.20
2018-06-30T11:20:56.296Z,5.05
2018-06-30T11:23:26.303Z,4.30
2018-06-30T11:25:56.250Z,4.58
2018-06-30T11:28:26.213Z,4.42
2018-06-30T11:30:55.789Z,4.70
2018-06-30T11:33:26.014Z,4.85
2018-06-30T11:35:55.963Z,5.22
2018-06-30T11:38:25.889Z,4.78
2018-06-30T11:40:58.766Z,4.67
2018-06-30T11:43:28.604Z,4.90
2018-06-30T11:45:59.752Z,4.85
2018-06-30T11:48:29.558Z,5.00
2018-06-30T11:50:59.205Z,4.62
2018-06-30T11:53:28.824Z,4.35
2018-06-30T11:56:09.675Z,4.60
2018-06-30T11:58:39.538Z,4.37
2018-06-30T12:01:09.356Z,4.50
2018-06-30T12:03:39.063Z,4.50
2018-06-30T12:06:08.987Z,4.22
2018-06-30T12:08:38.702Z,4.67
2018-06-30T12:11:08.409Z,4.37
2018-06-30T12:13:38.084Z,4.60
2018-06-30T12:16:07.900Z,3.85
2018-06-30T12:18:37.547Z,4.10
2018-06-30T12:21:07.437Z,4.35
2018-06-30T12:23:37.355Z,4.20
2018-06-30T12:26:07.036Z,3.80
2018-06-30T12:28:37.228Z,4.10
2018-06-30T12:31:06.851Z,4.25
2018-06-30T12:33:36.542Z,4.20
2018-06-30T12:36:06.589Z,3.90
2018-06-30T12:38:36.234Z,4.00
2018-06-30T12:41:06.116Z,3.50
2018-06-30T12:43:35.727Z,3.67
2018-06-30T12:46:05.004Z,3.30
2018-06-30T12:48:34.682Z,3.65
2018-06-30T12:51:10.628Z,3.80
2018-06-30T12:53:40.297Z,3.62
2018-06-30T12:56:09.928Z,3.65
2018-06-30T12:58:39.525Z,3.85
2018-06-30T13:01:09.201Z,3.00
2018-06-30T13:03:38.830Z,3.45
2018-06-30T13:06:08.598Z,3.17
2018-06-30T13:08:38.439Z,3.45
2018-06-30T13:11:08.133Z,3.47
2018-06-30T13:13:37.882Z,3.27
2018-06-30T13:16:07.918Z,3.55
2018-06-30T13:18:37.730Z,3.52
2018-06-30T13:21:08.190Z,3.10
2018-06-30T13:23:37.790Z,2.80
2018-06-30T13:26:07.433Z,3.40
2018-06-30T13:28:37.119Z,3.80
2018-06-30T13:31:07.130Z,3.62
2018-06-30T13:33:47.313Z,3.37
2018-06-30T13:36:17.018Z,3.10
2018-06-30T13:38:46.650Z,3.40
2018-06-30T13:41:16.692Z,3.58
2018-06-30T13:43:46.357Z,3.27
2018-06-30T13:46:15.775Z,3.30
2018-06-30T13:48:45.414Z,3.40
2018-06-30T13:51:14.682Z,3.25
2018-06-30T13:53:44.560Z,3.72
2018-06-30T13:56:14.223Z,3.50
2018-06-30T13:58:43.980Z,3.45
2018-06-30T14:01:13.629Z,3.20
2018-06-30T14:03:43.373Z,2.98
2018-06-30T14:06:12.957Z,2.90
2018-06-30T14:08:42.927Z,3.47
2018-06-30T14:11:12.590Z,3.02
2018-06-30T14:13:41.812Z,3.10
2018-06-30T14:16:11.553Z,3.25
2018-06-30T14:18:42.138Z,3.00
2018-06-30T14:21:12.430Z,2.80
2018-06-30T14:23:42.915Z,3.22
2018-06-30T14:26:13.829Z,3.17
2018-06-30T14:28:43.884Z,3.30
2018-06-30T14:31:13.928Z,2.80
2018-06-30T14:33:44.146Z,2.58
2018-06-30T14:36:14.608Z,2.85
2018-06-30T14:38:44.694Z,2.60
2018-06-30T14:41:14.891Z,2.62
2018-06-30T14:43:44.964Z,2.60
2018-06-30T14:46:15.249Z,2.37
2018-06-30T14:48:45.437Z,2.60
2018-06-30T14:51:15.484Z,2.58
2018-06-30T14:53:45.505Z,2.90
2018-06-30T14:56:15.703Z,2.70
2018-06-30T14:58:45.823Z,2.45
2018-06-30T15:01:17.188Z,3.00
2018-06-30T15:03:46.877Z,2.58
2018-06-30T15:06:17.174Z,2.90
2018-06-30T15:08:47.236Z,3.17
2018-06-30T15:11:17.359Z,2.95
2018-06-30T15:13:47.527Z,3.40
2018-06-30T15:16:17.768Z,3.52
2018-06-30T15:18:48.123Z,3.40
2018-06-30T15:21:18.888Z,3.87
2018-06-30T15:23:49.293Z,3.25
2018-06-30T15:26:19.143Z,3.20
2018-06-30T15:28:49.438Z,3.20
2018-06-30T15:31:19.997Z,3.60
2018-06-30T15:33:50.494Z,3.17
2018-06-30T15:36:20.840Z,3.00
2018-06-30T15:38:51.316Z,3.00
2018-06-30T15:41:21.875Z,3.00
2018-06-30T15:47:10.101Z,3.42
2018-06-30T15:49:40.495Z,3.65
2018-06-30T15:52:10.956Z,3.17
2018-06-30T15:54:41.223Z,3.00
2018-06-30T15:57:11.630Z,2.92
2018-06-30T15:59:42.063Z,3.30
2018-06-30T16:02:12.554Z,3.45
2018-06-30T16:04:42.811Z,3.35
2018-06-30T16:07:13.336Z,3.75
2018-06-30T16:09:43.707Z,4.35
2018-06-30T16:12:14.213Z,3.08
2018-06-30T16:14:44.886Z,3.12
2018-06-30T16:17:15.248Z,3.83
2018-06-30T16:19:45.748Z,3.05
2018-06-30T16:22:16.195Z,3.62
2018-06-30T16:24:46.535Z,3.40
2018-06-30T16:27:17.092Z,2.83
2018-06-30T16:29:47.613Z,4.00
2018-06-30T16:32:18.128Z,3.15
2018-06-30T16:34:48.512Z,3.22
2018-06-30T16:37:18.947Z,4.30
2018-06-30T16:39:49.331Z,3.52
2018-06-30T16:45:21.944Z,5.12
2018-06-30T16:47:52.536Z,4.28
2018-06-30T16:50:22.974Z,5.00
2018-06-30T16:52:53.620Z,4.00
2018-06-30T16:55:24.017Z,4.12
2018-06-30T16:57:54.792Z,4.12
2018-06-30T17:00:25.261Z,4.25
2018-06-30T17:02:55.753Z,4.17
2018-06-30T17:05:26.295Z,3.95
2018-06-30T17:07:56.779Z,3.65
2018-06-30T17:10:27.183Z,3.47
2018-06-30T17:12:57.550Z,3.75
2018-06-30T17:15:27.946Z,4.40
2018-06-30T17:17:58.585Z,4.00
2018-06-30T17:20:29.051Z,3.87
2018-06-30T17:22:59.452Z,4.05
2018-06-30T17:25:29.770Z,4.05
2018-06-30T17:28:00.013Z,3.60
2018-06-30T17:30:30.495Z,4.10
2018-06-30T17:33:01.066Z,4.35
2018-06-30T17:35:31.479Z,4.70
2018-06-30T17:38:02.153Z,5.28
2018-06-30T17:40:32.627Z,4.78
2018-06-30T17:43:03.142Z,4.15
2018-06-30T17:45:33.673Z,3.70
2018-06-30T17:48:03.963Z,3.45
2018-06-30T17:50:34.403Z,4.08
2018-06-30T17:53:04.912Z,4.17
2018-06-30T17:55:35.412Z,4.42
2018-06-30T17:58:05.975Z,4.35
2018-06-30T18:00:36.506Z,3.65
2018-06-30T18:03:06.927Z,4.05
2018-06-30T18:05:37.571Z,3.85
2018-06-30T18:08:07.915Z,4.35
2018-06-30T18:10:38.305Z,3.95
2018-06-30T18:13:08.863Z,3.77
2018-06-30T18:15:39.361Z,3.95
2018-06-30T18:18:09.866Z,3.95
2018-06-30T18:20:40.417Z,3.70
2018-06-30T18:23:11.052Z,3.80
2018-06-30T18:25:41.475Z,4.20
2018-06-30T18:28:12.245Z,3.90
2018-06-30T18:30:42.670Z,4.07
2018-06-30T18:33:13.047Z,4.60
2018-06-30T18:35:43.668Z,3.80
2018-06-30T18:38:14.104Z,4.27
2018-06-30T18:40:44.726Z,3.93
2018-06-30T18:43:15.061Z,3.97
2018-06-30T18:45:45.612Z,4.03
2018-06-30T18:48:16.095Z,4.50
2018-06-30T18:50:46.663Z,4.03
2018-06-30T18:53:17.219Z,3.97
2018-06-30T18:55:47.690Z,4.00
2018-06-30T18:58:18.096Z,5.40
2018-06-30T19:00:48.642Z,5.83
2018-06-30T19:03:19.254Z,4.40
2018-06-30T19:05:49.238Z,5.10
2018-06-30T19:08:19.818Z,4.60
2018-06-30T19:10:50.232Z,4.47
2018-06-30T19:13:20.624Z,4.17
2018-06-30T19:15:51.023Z,4.57
2018-06-30T19:18:21.667Z,5.00
2018-06-30T19:20:52.291Z,5.33
2018-06-30T19:23:22.928Z,4.60
2018-06-30T19:25:53.523Z,4.93
2018-06-30T19:28:23.946Z,5.33
2018-06-30T19:30:54.424Z,5.40
2018-06-30T19:33:25.099Z,5.33
2018-06-30T19:35:55.656Z,5.40
2018-06-30T19:38:26.235Z,5.20
2018-06-30T19:40:56.839Z,5.20
2018-06-30T19:43:27.315Z,4.77
2018-06-30T19:45:57.835Z,5.00
2018-06-30T19:48:28.634Z,5.20
2018-06-30T19:50:59.098Z,5.07
2018-06-30T19:53:29.538Z,5.40
2018-06-30T19:56:00.104Z,4.80
2018-06-30T19:58:30.825Z,5.23
2018-06-30T20:01:01.187Z,5.30
2018-06-30T20:03:37.439Z,5.10
2018-06-30T20:06:08.022Z,5.87
2018-06-30T20:08:38.531Z,4.97
2018-06-30T20:11:09.238Z,5.23
2018-06-30T20:13:39.816Z,4.80
2018-06-30T20:16:10.366Z,4.77
2018-06-30T20:18:41.052Z,4.87
2018-06-30T20:21:11.317Z,4.43
2018-06-30T20:23:42.069Z,4.90
2018-06-30T20:26:12.983Z,5.00
2018-06-30T20:28:43.394Z,5.13
2018-06-30T20:31:13.707Z,4.70
2018-06-30T20:33:44.266Z,5.17
2018-06-30T20:36:15.793Z,5.20
2018-06-30T20:38:46.192Z,5.87
2018-06-30T20:41:16.932Z,5.53
2018-06-30T20:43:47.300Z,5.00
2018-06-30T20:46:17.943Z,5.23
2018-06-30T20:48:54.664Z,4.93
2018-06-30T20:51:25.336Z,4.80
2018-06-30T20:53:55.849Z,4.80
2018-06-30T20:56:26.285Z,4.80
2018-06-30T20:58:56.669Z,5.13
2018-06-30T21:01:27.458Z,5.03
2018-06-30T21:03:57.913Z,4.67
2018-06-30T21:06:28.440Z,4.80
2018-06-30T21:08:59.042Z,5.30
2018-06-30T21:11:29.523Z,5.23
2018-06-30T21:13:59.996Z,4.80
2018-06-30T21:16:30.443Z,5.43
2018-06-30T21:19:01.048Z,5.70
2018-06-30T21:21:31.704Z,5.27
2018-06-30T21:24:19.966Z,5.37
2018-06-30T21:26:50.532Z,5.53
2018-06-30T21:29:20.959Z,6.20
2018-06-30T21:31:51.456Z,5.23
2018-06-30T21:34:21.987Z,5.57
2018-06-30T21:36:53.498Z,5.13
2018-06-30T21:39:24.021Z,5.83
2018-06-30T21:41:55.239Z,5.20
2018-06-30T21:44:25.600Z,5.90
2018-06-30T21:46:56.670Z,5.67
2018-06-30T21:49:27.049Z,5.27
2018-06-30T21:51:56.946Z,5.23
2018-06-30T21:54:27.411Z,6.00
2018-06-30T21:56:58.182Z,5.80
2018-06-30T21:59:28.716Z,6.70
2018-06-30T22:01:59.240Z,6.17
2018-06-30T22:04:29.628Z,5.97
2018-06-30T22:07:00.017Z,6.03
2018-06-30T22:09:53.456Z,6.33
2018-06-30T22:12:24.383Z,7.80
2018-06-30T22:14:55.120Z,7.20
2018-06-30T22:17:25.462Z,7.10
2018-06-30T22:19:55.962Z,7.10
2018-06-30T22:22:26.611Z,7.60
2018-06-30T22:24:58.304Z,7.67
2018-06-30T22:27:28.921Z,7.17
2018-06-30T22:29:59.489Z,7.70
2018-06-30T22:32:30.010Z,8.13
2018-06-30T22:35:00.536Z,7.03
2018-06-30T22:37:42.208Z,7.77
2018-06-30T22:40:20.476Z,7.53
2018-06-30T22:43:11.123Z,7.67
2018-06-30T22:45:41.612Z,8.17
2018-06-30T22:48:12.002Z,8.30
2018-06-30T22:50:42.565Z,7.47
2018-06-30T22:53:13.044Z,8.50
2018-06-30T22:55:43.425Z,7.60
2018-06-30T22:58:36.012Z,7.73
2018-06-30T23:01:06.435Z,7.83
2018-06-30T23:03:36.802Z,8.03
2018-06-30T23:06:07.720Z,7.43
2018-06-30T23:08:42.136Z,8.43
2018-06-30T23:11:12.371Z,7.30
2018-06-30T23:13:43.066Z,7.93
2018-06-30T23:16:13.763Z,8.03
2018-06-30T23:18:44.080Z,8.20
2018-06-30T23:21:14.531Z,8.30
2018-06-30T23:23:44.856Z,8.43
2018-06-30T23:26:15.377Z,9.13
2018-06-30T23:28:45.355Z,8.70
2018-06-30T23:31:15.815Z,9.20
2018-06-30T23:33:46.305Z,9.23
2018-06-30T23:36:16.779Z,9.03
2018-06-30T23:38:47.413Z,8.77
2018-06-30T23:41:17.798Z,9.63
2018-06-30T23:43:48.300Z,8.60
2018-06-30T23:46:18.825Z,8.73
2018-06-30T23:48:49.206Z,8.80
2018-06-30T23:51:19.673Z,9.40
2018-06-30T23:53:49.983Z,8.90
2018-06-30T23:56:20.418Z,8.57
2018-06-30T23:58:50.811Z,8.87
